Latest Weather Observations for Murganella Airstrip

IDD60801

Issued at 10:41 pm CST Monday 6 July 2020 (issued every 10 minutes, with the page automatically refreshed every 10 minutes)

About weather observations | Map of weather stations | Latest weather observations for NT | Other Formats
Station Details ID: 014309 Name: MURGANELLA AIRSTRIP Lat: -11.55 Lon: 132.93 Height: 9.5 m
Data from the previous 72 hours. | See also: Recent months at Murganella Airstrip
Date/Time
CST
Temp
°C
App
Temp
°C
Dew
Point
°C
Rel
Hum
%
Delta-T
°C
Wind Press
QNH
hPa
Press
MSL
hPa
Rain since
9am
mm
Dir  Spd
km/h
Gust
km/h
Spd
kts
Gust
kts
06/10:30pm 24.1 26.1 18.7 72 3.4 ESE 6 11 3 6 1015.1 1015.1 0.0
06/10:00pm 23.9 26.0 19.4 76 2.9 E 7 11 4 6 1015.0 1015.0 0.0
06/09:30pm 22.9 25.6 20.2 85 1.7 E 6 7 3 4 1015.1 1015.1 0.0
06/09:00pm 22.2 25.0 19.7 86 1.6 E 4 7 2 4 1015.0 1015.0 0.0
06/08:30pm 22.2 24.9 18.6 80 2.3 E 2 4 1 2 1014.8 1014.8 0.0
06/08:00pm 22.9 25.4 18.2 75 2.9 ESE 2 4 1 2 1014.5 1014.5 0.0
06/07:30pm 23.8 26.3 18.2 71 3.5 ESE 2 4 1 2 1014.2 1014.2 0.0
06/07:00pm 24.5 26.8 17.7 66 4.2 ESE 2 4 1 2 1013.9 1013.9 0.0
06/06:30pm 25.4 27.2 17.3 61 5.0 E 4 7 2 4 1013.6 1013.6 0.0
06/06:00pm 26.5 27.8 17.0 56 5.9 E 6 11 3 6 1013.3 1013.3 0.0
06/05:30pm 27.3 27.9 16.9 53 6.5 ENE 9 15 5 8 1012.9 1012.9 0.0
06/05:00pm 28.7 29.2 16.6 48 7.5 E 9 17 5 9 1012.5 1012.5 0.0
06/04:30pm 28.7 28.6 15.9 45 7.9 E 11 20 6 11 1012.5 1012.5 0.0
06/04:00pm 29.2 29.0 15.7 44 8.3 E 11 20 6 11 1012.3 1012.3 0.0
06/03:30pm 29.6 29.1 15.0 41 8.9 E 11 20 6 11 1012.2 1012.2 0.0
06/03:00pm 30.1 30.0 15.0 40 9.2 E 9 20 5 11 1012.3 1012.3 0.0
06/02:30pm 29.4 28.3 14.4 40 9.1 E 13 22 7 12 1012.5 1012.5 0.0
06/02:00pm 29.5 28.1 14.5 40 9.1 E 15 24 8 13 1012.7 1012.7 0.0
06/01:30pm 29.9 29.2 14.4 38 9.4 ESE 11 24 6 13 1012.9 1012.9 0.0
06/01:00pm 29.9 29.0 14.8 39 9.2 ESE 13 24 7 13 1013.3 1013.3 0.0
06/12:30pm 29.1 27.3 13.3 37 9.4 ESE 15 26 8 14 1014.0 1014.0 0.0
06/12:00pm 29.4 28.4 12.3 34 10.0 ESE 9 19 5 10 1014.3 1014.3 0.0
06/11:30am 28.6 26.6 11.6 34 9.8 SE 13 24 7 13 1014.7 1014.7 0.0
06/11:00am 28.3 26.4 11.8 36 9.5 ESE 13 20 7 11 1015.0 1015.0 0.0
06/10:30am 26.6 24.6 11.5 39 8.6 ESE 13 20 7 11 1015.3 1015.3 0.0
06/10:00am 26.4 24.8 11.7 40 8.4 ESE 11 19 6 10 1015.7 1015.7 0.0
06/09:30am 25.6 23.0 12.1 43 7.7 SE 17 24 9 13 1015.7 1015.7 0.0
06/09:00am 24.4 23.4 13.3 50 6.5 SE 11 19 6 10 1015.7 1015.7 0.0
06/08:30am 23.8 23.9 14.5 56 5.5 SE 7 13 4 7 1015.3 1015.3 0.0
06/08:00am 22.3 23.4 14.7 62 4.5 SSE 2 4 1 2 1015.1 1015.1 0.0
06/07:30am 20.1 20.8 14.5 70 3.3 SSE 4 6 2 3 1014.7 1014.7 0.0
06/07:00am 19.6 20.2 14.2 71 3.1 SE 4 6 2 3 1014.7 1014.7 0.0
06/06:30am 20.7 21.4 14.4 67 3.7 SE 4 9 2 5 1014.5 1014.5 0.0
06/06:00am 21.5 21.8 14.6 65 4.0 SE 6 9 3 5 1014.4 1014.4 0.0
06/05:30am 21.0 22.3 15.1 69 3.5 SE 2 6 1 3 1014.3 1014.3 0.0
06/05:00am 21.3 21.9 15.2 68 3.6 SSE 6 7 3 4 1014.1 1014.1 0.0
06/04:30am 21.0 21.8 14.9 68 3.6 SSE 4 6 2 3 1014.4 1014.4 0.0
06/04:00am 21.6 22.1 15.0 66 3.9 SE 6 9 3 5 1014.5 1014.5 0.0
06/03:30am 22.3 22.2 14.9 63 4.4 ESE 9 19 5 10 1014.5 1014.5 0.0
06/03:00am 22.6 23.0 15.2 63 4.4 ESE 7 15 4 8 1014.6 1014.6 0.0
06/02:30am 23.3 23.0 15.4 61 4.7 ESE 11 20 6 11 1014.8 1014.8 0.0
06/02:00am 23.4 24.0 15.7 62 4.6 ESE 7 15 4 8 1015.3 1015.3 0.0
06/01:30am 24.0 23.6 15.2 58 5.3 ESE 11 24 6 13 1015.4 1015.4 0.0
06/01:00am 24.6 24.1 15.0 55 5.7 ESE 11 26 6 14 1015.3 1015.3 0.0
06/12:30am 25.2 24.4 15.2 54 6.0 ESE 13 24 7 13 1015.5 1015.5 0.0
06/12:00am 25.6 24.5 15.3 53 6.2 ESE 15 28 8 15 1015.3 1015.3 0.0
 
Date/Time
CST
Temp
°C
App
Temp
°C
Dew
Point
°C
Rel
Hum
%
Delta-T
°C
Wind Press
QNH
hPa
Press
MSL
hPa
Rain since
9am
mm
Dir  Spd
km/h
Gust
km/h
Spd
kts
Gust
kts
05/11:30pm 25.6 26.2 16.7 58 5.5 E 9 24 5 13 1015.1 1015.1 0.0
05/11:00pm 25.8 26.6 16.4 56 5.8 E 7 11 4 6 1014.8 1014.8 0.0
05/10:30pm 25.9 26.7 15.9 54 6.1 ESE 6 9 3 5 1014.6 1014.6 0.0
05/10:00pm 26.3 27.0 16.0 53 6.3 ESE 7 13 4 7 1014.5 1014.5 0.0
05/09:30pm 26.5 27.3 16.4 53 6.2 ESE 7 15 4 8 1014.3 1014.3 0.0
05/09:00pm 26.2 28.1 18.9 64 4.7 ESE 7 15 4 8 1014.0 1014.0 0.0
05/08:30pm 25.8 28.1 19.4 67 4.1 ESE 6 9 3 5 1013.5 1013.5 0.0
05/08:00pm 25.9 28.2 19.5 68 4.1 ESE 6 11 3 6 1013.3 1013.3 0.0
05/07:30pm 25.8 27.9 19.0 66 4.4 E 6 11 3 6 1013.0 1013.0 0.0
05/07:00pm 25.8 27.8 18.7 65 4.5 E 6 11 3 6 1012.8 1012.8 0.0
05/06:30pm 25.6 27.9 18.5 65 4.5 E 4 9 2 5 1012.7 1012.7 0.0
05/06:00pm 25.8 27.0 18.2 63 4.8 ENE 9 15 5 8 1012.2 1012.2 0.0
05/05:30pm 26.9 27.9 17.7 57 5.8 ENE 9 17 5 9 1011.9 1011.9 0.0
05/05:00pm 27.3 27.7 17.2 54 6.3 E 11 20 6 11 1011.8 1011.8 0.0
05/04:30pm 28.0 27.6 16.3 49 7.2 ENE 13 20 7 11 1011.5 1011.5 0.0
05/04:00pm 28.8 28.0 16.0 45 7.9 ENE 15 24 8 13 1011.4 1011.4 0.0
05/03:30pm 29.3 28.4 15.8 44 8.3 E 15 30 8 16 1011.6 1011.6 0.0
05/03:00pm 28.9 27.6 14.7 42 8.6 ENE 15 28 8 15 1011.7 1011.7 0.0
05/02:30pm 29.7 27.7 13.9 38 9.5 E 17 28 9 15 1012.0 1012.0 0.0
05/02:00pm 29.5 27.8 13.7 38 9.5 ESE 15 28 8 15 1012.4 1012.4 0.0
05/01:30pm 29.1 26.7 13.7 38 9.2 E 19 30 10 16 1012.7 1012.7 0.0
05/01:00pm 28.8 26.5 13.1 38 9.3 E 17 32 9 17 1013.1 1013.1 0.0
05/12:30pm 28.8 26.9 13.1 38 9.3 E 15 30 8 16 1013.6 1013.6 0.0
05/12:00pm 29.2 27.7 13.0 37 9.6 E 13 26 7 14 1014.0 1014.0 0.0
05/11:30am 27.9 24.9 11.9 37 9.2 ESE 19 32 10 17 1014.6 1014.6 0.0
05/11:00am 26.9 23.9 12.5 40 8.4 ESE 20 35 11 19 1014.9 1014.9 0.0
05/10:30am 27.3 24.5 12.5 40 8.6 ESE 19 33 10 18 1015.0 1015.0 0.0
05/10:00am 27.1 25.1 12.7 41 8.4 ESE 15 30 8 16 1015.1 1015.1 0.0
05/09:30am 25.9 23.3 12.0 42 8.0 ESE 17 32 9 17 1015.1 1015.1 0.0
05/09:00am 25.2 23.4 11.0 41 8.0 ESE 11 24 6 13 1015.2 1015.2 0.0
05/08:30am 24.2 22.1 11.2 44 7.3 ESE 13 28 7 15 1014.9 1014.9 0.0
05/08:00am 22.8 21.6 11.5 49 6.3 ESE 9 20 5 11 1014.9 1014.9 0.0
05/07:30am 21.8 20.9 11.5 52 5.7 ESE 7 15 4 8 1014.8 1014.8 0.0
05/07:00am 21.9 20.2 11.3 51 5.9 SE 11 22 6 12 1014.6 1014.6 0.0
05/06:30am 21.3 21.0 12.7 58 4.9 SE 6 9 3 5 1014.5 1014.5 0.0
05/06:00am 21.8 20.6 12.9 57 5.1 ESE 11 19 6 10 1014.3 1014.3 0.0
05/05:30am 21.7 20.9 12.8 57 5.1 ESE 9 20 5 11 1014.0 1014.0 0.0
05/05:00am 22.0 20.6 13.4 58 5.0 ESE 13 28 7 15 1014.0 1014.0 0.0
05/04:30am 22.2 20.8 13.5 57 5.0 ESE 13 28 7 15 1014.2 1014.2 0.0
05/04:00am 22.6 20.6 12.8 54 5.6 ESE 15 30 8 16 1014.6 1014.6 0.0
05/03:30am 22.5 20.8 12.4 52 5.7 ESE 13 26 7 14 1014.7 1014.7 0.0
05/03:00am 22.4 21.7 13.2 56 5.3 ESE 9 15 5 8 1015.0 1015.0 0.0
05/02:30am 21.8 21.8 13.7 60 4.7 ESE 6 11 3 6 1015.2 1015.2 0.0
05/02:00am 22.0 22.3 14.4 62 4.5 SE 6 11 3 6 1015.6 1015.6 0.0
05/01:30am 22.3 22.9 15.2 64 4.2 ESE 6 9 3 5 1015.7 1015.7 0.0
05/01:00am 22.8 23.4 15.4 63 4.4 SE 6 11 3 6 1015.8 1015.8 0.0
05/12:30am 23.6 24.1 15.6 61 4.8 SE 7 13 4 7 1015.8 1015.8 0.0
05/12:00am 24.3 24.5 15.8 59 5.1 SE 9 19 5 10 1015.9 1015.9 0.0
 
Date/Time
CST
Temp
°C
App
Temp
°C
Dew
Point
°C
Rel
Hum
%
Delta-T
°C
Wind Press
QNH
hPa
Press
MSL
hPa
Rain since
9am
mm
Dir  Spd
km/h
Gust
km/h
Spd
kts
Gust
kts
04/11:30pm 24.8 24.3 16.0 58 5.4 ESE 13 26 7 14 1015.8 1015.8 0.0
04/11:00pm 25.3 24.5 16.2 57 5.6 ESE 15 24 8 13 1016.0 1016.0 0.0
04/10:30pm 25.6 25.4 15.6 54 6.1 ESE 11 24 6 13 1015.9 1015.9 0.0
04/10:00pm 25.8 26.2 17.2 59 5.4 ESE 11 22 6 12 1015.6 1015.6 0.0
04/09:30pm 25.5 27.4 18.9 67 4.2 ESE 7 17 4 9 1015.3 1015.3 0.0
04/09:00pm 25.2 28.0 19.6 71 3.6 ESE 4 6 2 3 1015.0 1015.0 0.0
04/08:30pm 25.5 27.8 19.4 69 3.9 ESE 6 11 3 6 1014.5 1014.5 0.0
04/08:00pm 25.7 27.9 19.6 69 3.9 E 7 17 4 9 1014.1 1014.1 0.0
04/07:30pm 25.9 27.9 20.0 70 3.8 E 9 15 5 8 1013.8 1013.8 0.0
04/07:00pm 26.1 28.2 20.2 70 3.8 E 9 17 5 9 1013.6 1013.6 0.0
04/06:30pm 26.9 28.8 19.0 62 5.1 E 7 15 4 8 1013.3 1013.3 0.0
04/06:00pm 27.7 29.0 18.4 57 5.9 E 9 15 5 8 1012.8 1012.8 0.0
04/05:30pm 28.9 30.0 18.1 52 6.9 E 9 19 5 10 1012.7 1012.7 0.0
04/05:00pm 29.6 30.6 17.8 49 7.5 E 9 24 5 13 1012.5 1012.5 0.0
04/04:30pm 29.9 30.0 17.4 47 7.9 E 13 26 7 14 1012.5 1012.5 0.0
04/04:00pm 30.7 30.8 17.4 45 8.5 E 13 20 7 11 1012.4 1012.4 0.0
04/03:30pm 30.9 29.6 14.9 37 9.8 E 15 28 8 15 1012.5 1012.5 0.0
04/03:00pm 30.8 28.7 14.8 37 9.8 ESE 19 35 10 19 1012.6 1012.6 0.0
04/02:30pm 31.1 29.8 14.7 37 10.0 E 15 26 8 14 1012.7 1012.7 0.0
04/02:00pm 30.6 28.4 14.3 37 9.9 ESE 19 33 10 18 1013.3 1013.3 0.0
04/01:30pm 30.9 28.6 14.1 36 10.2 ESE 19 33 10 18 1013.8 1013.8 0.0
04/01:00pm 30.4 27.9 14.1 37 9.8 E 20 39 11 21 1014.5 1014.5 0.0
04/12:30pm 30.8 29.2 14.0 36 10.1 ESE 15 24 8 13 1014.9 1014.9 0.0
04/12:00pm 30.3 27.6 13.6 36 10.0 ESE 20 37 11 20 1015.2 1015.2 0.0
04/11:30am 29.9 27.0 12.8 35 10.1 ESE 20 37 11 20 1015.6 1015.6 0.0
04/11:00am 28.8 25.5 13.9 40 8.9 ESE 24 44 13 24 1015.6 1015.6 0.0
04/10:30am 29.1 27.1 14.9 42 8.6 ESE 19 35 10 19 1015.9 1015.9 0.0
04/10:00am 28.5 26.7 15.4 45 8.0 ESE 19 32 10 17 1016.0 1016.0 0.0
04/09:30am 27.5 27.0 15.8 48 7.2 ESE 13 28 7 15 1016.0 1016.0 0.0
04/09:00am 26.8 26.6 16.7 54 6.3 ESE 13 26 7 14 1015.9 1015.9 0.0
04/08:30am 25.1 26.6 17.6 63 4.7 ESE 6 11 3 6 1015.6 1015.6 0.0
04/08:00am 23.4 24.9 17.6 70 3.6 SE 6 7 3 4 1015.2 1015.2 0.0
04/07:30am 21.2 23.5 17.6 80 2.2 SE 2 4 1 2 1015.1 1015.1 0.0
04/07:00am 21.5 23.0 17.7 79 2.3 SE 6 7 3 4 1014.9 1014.9 0.0
04/06:30am 21.9 23.4 17.7 77 2.6 ESE 6 11 3 6 1015.0 1015.0 0.0
04/06:00am 22.3 23.8 18.1 77 2.6 ESE 7 13 4 7 1014.8 1014.8 0.0
04/05:30am 22.3 23.8 18.1 77 2.6 ESE 7 13 4 7 1014.5 1014.5 0.0
04/05:00am 22.7 24.3 18.3 76 2.8 ESE 7 13 4 7 1014.3 1014.3 0.0
04/04:30am 23.0 24.2 18.3 75 2.9 ESE 9 17 5 9 1014.6 1014.6 0.0
04/04:00am 23.5 24.4 18.4 73 3.2 ESE 11 19 6 10 1014.8 1014.8 0.0
04/03:30am 23.8 24.7 18.4 72 3.4 ESE 11 26 6 14 1015.1 1015.1 0.0
04/03:00am 24.0 24.9 18.4 71 3.5 ESE 11 19 6 10 1015.3 1015.3 0.0
04/02:30am 24.2 25.4 18.2 69 3.8 ESE 9 19 5 10 1015.5 1015.5 0.0
04/02:00am 24.5 26.2 18.4 69 3.9 ESE 7 15 4 8 1015.8 1015.8 0.0
04/01:30am 24.3 26.0 18.5 70 3.7 ESE 7 17 4 9 1016.0 1016.0 0.0
04/01:00am 24.7 26.4 18.4 68 4.0 ESE 7 15 4 8 1016.2 1016.2 0.0
04/12:30am 25.3 26.3 18.7 67 4.2 ESE 11 20 6 11 1016.4 1016.4 0.0
04/12:00am 25.5 27.2 19.4 69 3.9 ESE 9 19 5 10 1016.4 1016.4 0.0
 
Date/Time
CST
Temp
°C
App
Temp
°C
Dew
Point
°C
Rel
Hum
%
Delta-T
°C
Wind Press
QNH
hPa
Press
MSL
hPa
Rain since
9am
mm
Dir  Spd
km/h
Gust
km/h
Spd
kts
Gust
kts
03/11:30pm 25.2 28.0 20.9 77 2.8 ESE 7 13 4 7 1016.3 1016.3 0.0
03/11:00pm 24.6 27.7 21.1 81 2.3 ESE 6 11 3 6 1016.1 1016.1 0.0

Other formats

Comma delimited format used in spreadsheet applications
http://www.bom.gov.au/fwo/IDD60801/IDD60801.94109.axf

JavaScript Object Notation format (JSON) in row-major order
http://www.bom.gov.au/fwo/IDD60801/IDD60801.94109.json

Data quality

Most of these data are generated automatically and are frequently updated. Quality checks on data are not normally performed. It is possible for incorrect values to appear. Refer to information at About Latest Weather Observations and please check the disclaimer before using these data.